Time;durP1;ratioP1;P1;durP2;ratioP2;P2;SDS_P1;SDS_P2;PMS_P1;PMS_P2;Temp;Humidity;BMP_temperature;BMP_pressure;BME280_temperature;BME280_humidity;BME280_pressure;Samples;Min_cycle;Max_cycle;Signal;HPM_P1;HPM_P2
2023/04/27 00:01:48;;;;;;;18.70;10.50;;;;;;;2.19;65.57;100537.83;129499;1261;116441;-66
2023/04/27 00:04:50;;;;;;;22.50;12.20;;;;;;;2.17;65.30;100535.39;129501;1258;114798;-68
2023/04/27 00:07:52;;;;;;;19.60;12.20;;;;;;;2.14;65.65;100533.85;129593;1257;116361;-66
2023/04/27 00:10:56;;;;;;;19.80;12.70;;;;;;;2.11;65.72;100534.77;129494;1280;114743;-67
2023/04/27 00:13:58;;;;;;;23.60;12.10;;;;;;;2.09;65.92;100530.55;129674;1259;115387;-67
2023/04/27 00:17:00;;;;;;;21.30;11.90;;;;;;;2.06;65.82;100527.06;129542;1280;128562;-67
2023/04/27 00:20:04;;;;;;;27.60;12.50;;;;;;;2.04;65.88;100531.48;129443;1258;114731;-65
2023/04/27 00:23:06;;;;;;;21.50;11.80;;;;;;;2.01;65.50;100533.98;129511;1261;115230;-66
2023/04/27 00:26:08;;;;;;;24.00;11.50;;;;;;;1.99;65.91;100529.79;129450;1258;114892;-65
2023/04/27 00:29:11;;;;;;;21.20;12.20;;;;;;;1.95;65.94;100529.29;129634;1257;114746;-68
2023/04/27 00:32:14;;;;;;;26.80;13.90;;;;;;;1.93;66.29;100532.48;129659;1272;114716;-68
2023/04/27 00:35:16;;;;;;;24.20;12.00;;;;;;;1.90;66.30;100532.88;129469;1263;127699;-67
2023/04/27 00:38:19;;;;;;;24.70;12.10;;;;;;;1.86;66.37;100538.19;129611;1271;114833;-67
2023/04/27 00:41:21;;;;;;;24.70;11.90;;;;;;;1.82;66.47;100541.03;129648;1261;114835;-68
2023/04/27 00:44:25;;;;;;;25.70;12.30;;;;;;;1.79;66.39;100541.77;129662;1258;115378;-67
2023/04/27 00:47:28;;;;;;;26.30;13.30;;;;;;;1.76;66.61;100540.55;129494;1262;115374;-65
2023/04/27 00:50:31;;;;;;;34.90;11.80;;;;;;;1.74;66.59;100540.06;129722;1261;114823;-67
2023/04/27 00:53:33;;;;;;;26.40;12.40;;;;;;;1.71;66.76;100543.45;129630;1263;114717;-70
2023/04/27 00:56:35;;;;;;;22.10;12.30;;;;;;;1.67;67.02;100542.41;129366;1267;115198;-67
2023/04/27 00:59:38;;;;;;;28.50;13.10;;;;;;;1.64;66.84;100542.45;129553;1261;114748;-65
2023/04/27 01:02:42;;;;;;;24.10;13.40;;;;;;;1.61;66.88;100541.77;129454;1258;116397;-68
2023/04/27 01:05:44;;;;;;;24.70;14.20;;;;;;;1.57;66.93;100542.66;129696;1258;114716;-67
2023/04/27 01:08:46;;;;;;;25.60;13.90;;;;;;;1.55;67.01;100541.82;129536;1258;115512;-70
2023/04/27 01:11:49;;;;;;;24.60;13.60;;;;;;;1.51;66.77;100542.02;129666;1257;114871;-70
2023/04/27 01:14:51;;;;;;;28.50;15.20;;;;;;;1.48;67.09;100538.71;129746;1280;114636;-70
2023/04/27 01:18:01;;;;;;;31.00;14.60;;;;;;;1.45;66.95;100541.73;129614;1261;114852;-68
2023/04/27 01:21:03;;;;;;;32.60;15.50;;;;;;;1.42;67.01;100546.32;129616;1261;114701;-70
2023/04/27 01:24:07;;;;;;;23.90;13.30;;;;;;;1.37;67.07;100543.38;129496;1277;365013;-69
2023/04/27 01:27:09;;;;;;;30.50;15.80;;;;;;;1.33;67.16;100547.09;129790;1258;114784;-69
2023/04/27 01:30:11;;;;;;;31.20;15.20;;;;;;;1.28;67.21;100549.60;129564;1261;114756;-68
2023/04/27 01:33:13;;;;;;;37.00;15.30;;;;;;;1.25;67.39;100549.27;129456;1264;115147;-69
2023/04/27 01:36:16;;;;;;;29.30;15.50;;;;;;;1.21;67.29;100548.59;129598;1261;114767;-68
2023/04/27 01:39:19;;;;;;;31.80;14.40;;;;;;;1.17;67.70;100548.27;129542;1258;114837;-69
2023/04/27 01:42:21;;;;;;;38.20;14.20;;;;;;;1.13;67.61;100552.86;129780;1258;114723;-70
2023/04/27 01:45:24;;;;;;;32.50;15.80;;;;;;;1.09;67.75;100554.30;129600;1259;115427;-68
2023/04/27 01:48:26;;;;;;;27.30;14.50;;;;;;;1.05;68.14;100551.34;129535;1261;129092;-66
2023/04/27 01:51:29;;;;;;;30.10;14.40;;;;;;;1.01;67.78;100558.73;129438;1271;114720;-68
2023/04/27 01:54:32;;;;;;;29.20;14.00;;;;;;;0.97;67.66;100554.20;129365;1260;114896;-69
2023/04/27 01:57:34;;;;;;;36.40;15.30;;;;;;;0.94;67.82;100556.85;129477;1261;114698;-68
2023/04/27 02:00:39;;;;;;;28.60;13.90;;;;;;;0.90;68.10;100557.23;129347;1263;114701;-70
2023/04/27 02:03:43;;;;;;;31.80;15.50;;;;;;;0.86;68.04;100561.63;129323;1262;115385;-68
2023/04/27 02:06:45;;;;;;;27.30;14.80;;;;;;;0.83;68.17;100563.42;129380;1264;115095;-68
2023/04/27 02:09:48;;;;;;;27.80;14.10;;;;;;;0.79;67.92;100562.74;129466;1264;114742;-69
2023/04/27 02:12:50;;;;;;;27.00;14.10;;;;;;;0.74;68.27;100559.77;129383;1271;114776;-68
2023/04/27 02:15:52;;;;;;;27.00;14.20;;;;;;;0.72;68.08;100563.14;129555;1261;114810;-67
2023/04/27 02:18:54;;;;;;;38.80;14.30;;;;;;;0.68;68.27;100563.48;129817;1280;114864;-68
2023/04/27 02:21:58;;;;;;;25.10;14.60;;;;;;;0.65;68.34;100562.98;129360;1259;114891;-69
2023/04/27 02:25:00;;;;;;;26.30;13.40;;;;;;;0.63;68.78;100565.63;129528;1278;114746;-70
2023/04/27 02:28:03;;;;;;;27.80;14.80;;;;;;;0.61;68.65;100562.83;129465;1258;115692;-69
2023/04/27 02:31:05;;;;;;;26.90;13.70;;;;;;;0.59;68.87;100563.87;129380;1280;115095;-70
2023/04/27 02:34:07;;;;;;;28.50;14.20;;;;;;;0.59;68.88;100566.70;129513;1258;114781;-68
2023/04/27 02:37:09;;;;;;;27.60;12.90;;;;;;;0.58;69.12;100568.11;129676;1261;114723;-61
2023/04/27 02:40:12;;;;;;;28.90;13.30;;;;;;;0.58;69.10;100572.85;129815;1280;114772;-61
2023/04/27 02:43:14;;;;;;;30.90;12.80;;;;;;;0.58;69.13;100570.92;129708;1261;114785;-63
2023/04/27 02:46:17;;;;;;;24.30;13.80;;;;;;;0.57;69.03;100575.84;129617;1273;114744;-63
2023/04/27 02:49:19;;;;;;;27.10;13.70;;;;;;;0.57;69.39;100576.73;129382;1258;114864;-62
2023/04/27 02:52:22;;;;;;;25.70;12.40;;;;;;;0.55;69.21;100574.45;129681;1259;115425;-62
2023/04/27 02:55:24;;;;;;;33.40;13.20;;;;;;;0.55;69.18;100574.80;129550;1258;114771;-62
2023/04/27 02:58:27;;;;;;;24.90;12.60;;;;;;;0.53;69.21;100576.38;129432;1261;114749;-63
2023/04/27 03:01:30;;;;;;;30.70;13.30;;;;;;;0.51;69.41;100573.23;129516;1261;115283;-63
2023/04/27 03:04:32;;;;;;;22.70;12.30;;;;;;;0.50;69.36;100576.05;129475;1261;114827;-60
2023/04/27 03:07:35;;;;;;;22.30;13.10;;;;;;;0.50;69.50;100578.70;129524;1261;115410;-61
2023/04/27 03:10:37;;;;;;;30.40;14.40;;;;;;;0.48;69.62;100580.27;129341;1261;115344;-62
2023/04/27 03:13:43;;;;;;;26.90;13.10;;;;;;;0.47;69.58;100584.32;129493;1261;114662;-60
2023/04/27 03:16:45;;;;;;;23.40;12.10;;;;;;;0.45;69.58;100581.68;129397;1264;114833;-60
2023/04/27 03:19:50;;;;;;;30.20;12.00;;;;;;;0.44;69.78;100582.73;129726;1258;114715;-62
2023/04/27 03:22:53;;;;;;;21.60;11.80;;;;;;;0.43;69.71;100581.34;129333;1280;128465;-61
2023/04/27 03:25:57;;;;;;;23.00;13.00;;;;;;;0.42;69.69;100584.33;129453;1280;114718;-61
2023/04/27 03:28:59;;;;;;;30.70;12.50;;;;;;;0.41;69.97;100581.71;129387;1259;115166;-64
2023/04/27 03:32:03;;;;;;;26.20;11.50;;;;;;;0.40;69.81;100584.00;129481;1261;115076;-64
2023/04/27 03:35:06;;;;;;;25.10;12.00;;;;;;;0.40;69.87;100588.21;129436;1261;114813;-62
2023/04/27 03:38:09;;;;;;;23.90;12.20;;;;;;;0.40;70.08;100589.27;129457;1261;114817;-64
2023/04/27 03:41:11;;;;;;;29.00;13.70;;;;;;;0.41;70.26;100593.13;129531;1261;114849;-63
2023/04/27 03:44:17;;;;;;;31.30;13.00;;;;;;;0.43;70.25;100596.45;129415;1275;115422;-62
2023/04/27 03:47:19;;;;;;;23.90;13.00;;;;;;;0.45;70.37;100599.08;129426;1261;114692;-64
2023/04/27 03:50:22;;;;;;;25.30;12.50;;;;;;;0.50;70.60;100603.98;129523;1261;114977;-64
2023/04/27 03:53:24;;;;;;;23.30;12.70;;;;;;;0.56;70.42;100604.85;129444;1261;114643;-63
2023/04/27 03:56:26;;;;;;;26.40;12.60;;;;;;;0.64;70.67;100607.11;129472;1280;115207;-63
2023/04/27 03:59:29;;;;;;;28.00;13.60;;;;;;;0.72;70.48;100610.95;129374;1280;127186;-63
2023/04/27 04:02:32;;;;;;;25.40;13.00;;;;;;;0.83;70.91;100609.83;129416;1278;114768;-63
2023/04/27 04:05:34;;;;;;;25.90;12.70;;;;;;;0.95;71.17;100609.77;129428;1280;114728;-63
2023/04/27 04:08:36;;;;;;;32.40;13.60;;;;;;;1.08;71.04;100611.99;129514;1261;114873;-62
2023/04/27 04:11:39;;;;;;;25.60;12.60;;;;;;;1.23;71.33;100611.74;129267;1259;115038;-66
2023/04/27 04:14:41;;;;;;;24.70;13.80;;;;;;;1.41;71.54;100605.30;129467;1257;114725;-63
2023/04/27 04:17:46;;;;;;;25.80;13.00;;;;;;;1.59;71.08;100613.24;129419;1259;114704;-61
2023/04/27 04:20:48;;;;;;;25.20;13.00;;;;;;;1.80;71.43;100613.61;129478;1261;114943;-63
2023/04/27 04:23:50;;;;;;;22.20;12.90;;;;;;;2.02;71.18;100621.16;129673;1261;115163;-62
2023/04/27 04:26:52;;;;;;;21.90;12.10;;;;;;;2.22;71.01;100625.22;129796;1261;114666;-62
2023/04/27 04:29:54;;;;;;;20.40;12.70;;;;;;;2.45;71.31;100618.80;129288;1264;115178;-61
2023/04/27 04:32:56;;;;;;;22.90;12.70;;;;;;;2.68;71.03;100625.41;129398;1262;114728;-63
2023/04/27 04:35:58;;;;;;;29.60;14.30;;;;;;;2.90;70.66;100628.69;129457;1258;115613;-61
2023/04/27 04:39:04;;;;;;;23.40;13.30;;;;;;;3.13;70.74;100637.92;129359;1280;128386;-62
2023/04/27 04:42:07;;;;;;;26.00;12.30;;;;;;;3.35;70.64;100636.38;129284;1280;115190;-63
2023/04/27 04:45:09;;;;;;;19.40;11.70;;;;;;;3.61;70.46;100638.27;129472;1261;114829;-62
2023/04/27 04:48:15;;;;;;;25.80;11.90;;;;;;;3.86;70.33;100639.30;129436;1261;114708;-64
2023/04/27 04:51:17;;;;;;;;;;;;;;;4.05;69.91;100638.11;129582;1263;114975;-64
2023/04/27 04:54:20;;;;;;;20.50;11.50;;;;;;;4.22;69.59;100642.41;129422;1261;115058;-62
2023/04/27 04:57:22;;;;;;;22.30;11.20;;;;;;;4.39;69.37;100649.18;129538;1261;115755;-65
2023/04/27 05:00:24;;;;;;;23.60;11.70;;;;;;;4.54;69.31;100649.79;129512;1263;114803;-62
2023/04/27 05:03:26;;;;;;;27.70;11.30;;;;;;;4.66;68.70;100648.13;129628;1261;114717;-62
2023/04/27 05:06:29;;;;;;;21.20;13.20;;;;;;;4.78;68.57;100649.16;129634;1261;115386;-65
2023/04/27 05:09:34;;;;;;;22.70;11.40;;;;;;;4.90;68.38;100652.27;129705;1261;115105;-62
2023/04/27 05:12:36;;;;;;;;;;;;;;;5.04;68.24;100658.70;129513;1267;114906;-60
2023/04/27 05:15:38;;;;;;;22.60;11.50;;;;;;;5.16;67.97;100658.10;129626;1258;114723;-61
2023/04/27 05:18:40;;;;;;;30.20;11.70;;;;;;;5.30;67.89;100656.56;129645;1258;115286;-61
2023/04/27 05:21:44;;;;;;;18.90;11.10;;;;;;;5.45;67.61;100663.50;129317;1280;115175;-64
2023/04/27 05:24:46;;;;;;;18.70;11.10;;;;;;;5.61;67.39;100661.89;129476;1269;114791;-63
2023/04/27 05:27:48;;;;;;;21.20;11.10;;;;;;;5.79;67.42;100660.77;129482;1257;114723;-60
2023/04/27 05:30:52;;;;;;;16.00;10.00;;;;;;;5.97;66.91;100661.40;129442;1261;116314;-65
2023/04/27 05:33:54;;;;;;;15.80;9.80;;;;;;;6.11;66.66;100663.38;129487;1261;114803;-61
2023/04/27 05:36:57;;;;;;;21.30;9.60;;;;;;;6.25;66.27;100660.70;129580;1258;115531;-61
2023/04/27 05:40:00;;;;;;;22.60;10.10;;;;;;;6.43;66.26;100662.03;129467;1257;114802;-61
2023/04/27 05:43:04;;;;;;;23.40;10.50;;;;;;;6.63;66.03;100662.02;129484;1259;114874;-62
2023/04/27 05:46:06;;;;;;;22.00;9.30;;;;;;;6.85;65.65;100665.15;129473;1261;114729;-61
2023/04/27 05:49:09;;;;;;;17.90;9.60;;;;;;;7.09;65.47;100661.27;129489;1261;114750;-63
2023/04/27 05:52:11;;;;;;;20.20;9.00;;;;;;;7.29;65.01;100665.99;129605;1259;114793;-62
2023/04/27 05:55:13;;;;;;;25.10;9.80;;;;;;;7.53;64.67;100671.14;129458;1280;128608;-61
2023/04/27 05:58:15;;;;;;;17.90;8.70;;;;;;;7.78;64.45;100674.47;129509;1261;115318;-63
2023/04/27 06:01:18;;;;;;;18.50;8.50;;;;;;;7.93;63.97;100675.38;129809;1261;114723;-64
2023/04/27 06:04:20;;;;;;;15.00;8.30;;;;;;;8.02;63.53;100677.60;129707;1263;114876;-62
2023/04/27 06:07:23;;;;;;;17.90;9.30;;;;;;;8.10;63.14;100679.45;130209;1259;114718;-61
2023/04/27 06:10:25;;;;;;;15.80;8.20;;;;;;;8.20;62.81;100679.83;129770;1258;114761;-62
2023/04/27 06:13:27;;;;;;;15.80;8.00;;;;;;;8.32;62.92;100677.48;129981;1261;114778;-66
2023/04/27 06:16:30;;;;;;;16.70;7.50;;;;;;;8.51;62.25;100679.55;129613;1280;128205;-60
2023/04/27 06:19:32;;;;;;;16.50;8.10;;;;;;;8.70;61.97;100674.25;129749;1280;115175;-61
2023/04/27 06:22:38;;;;;;;12.00;6.90;;;;;;;8.91;61.86;100675.44;129677;1257;114778;-61
2023/04/27 06:25:40;;;;;;;15.80;8.00;;;;;;;9.15;61.42;100678.51;129573;1280;115151;-61
2023/04/27 06:28:43;;;;;;;12.60;6.60;;;;;;;9.43;61.27;100680.28;129691;1280;114797;-61
2023/04/27 06:31:46;;;;;;;15.10;7.00;;;;;;;9.75;60.82;100682.93;129430;1257;114801;-62
2023/04/27 06:34:48;;;;;;;14.50;6.90;;;;;;;9.96;60.06;100678.71;129555;1258;115478;-62
2023/04/27 06:37:51;;;;;;;13.90;7.30;;;;;;;10.17;59.71;100683.92;129598;1261;115216;-63
2023/04/27 06:40:53;;;;;;;23.50;8.20;;;;;;;10.45;59.59;100686.16;129590;1261;114717;-62
2023/04/27 06:43:56;;;;;;;17.10;7.20;;;;;;;10.88;59.58;100683.78;129735;1273;114854;-63
2023/04/27 06:46:58;;;;;;;12.00;6.40;;;;;;;11.60;59.30;100681.04;129557;1261;115314;-63
2023/04/27 06:50:00;;;;;;;19.30;6.20;;;;;;;12.35;58.15;100680.81;129507;1278;115574;-61
2023/04/27 06:53:02;;;;;;;11.50;5.80;;;;;;;12.89;57.34;100677.14;129408;1280;114753;-63
2023/04/27 06:56:06;;;;;;;15.30;6.10;;;;;;;13.12;56.43;100671.95;129515;1281;114816;-60
2023/04/27 06:59:08;;;;;;;10.80;6.40;;;;;;;13.33;55.92;100669.17;129573;1258;114783;-65
2023/04/27 07:02:10;;;;;;;11.10;6.40;;;;;;;13.56;55.57;100661.15;129235;1264;114769;-63
2023/04/27 07:05:12;;;;;;;13.20;6.70;;;;;;;13.80;54.87;100664.10;129582;1280;114740;-66
2023/04/27 07:08:15;;;;;;;14.30;6.10;;;;;;;13.91;54.46;100665.23;129444;1280;114743;-62
2023/04/27 07:11:17;;;;;;;14.80;6.00;;;;;;;14.04;54.03;100659.48;129667;1261;114770;-62
2023/04/27 07:14:19;;;;;;;13.70;6.10;;;;;;;14.23;53.65;100662.16;129301;1280;128427;-61
2023/04/27 07:17:22;;;;;;;10.80;6.30;;;;;;;14.35;53.16;100660.90;129679;1280;114781;-61
2023/04/27 07:20:24;;;;;;;10.50;5.20;;;;;;;14.45;52.81;100659.21;129511;1271;114799;-64
2023/04/27 07:23:26;;;;;;;12.50;5.50;;;;;;;14.63;52.60;100661.38;129570;1281;114795;-66
2023/04/27 07:26:30;;;;;;;9.00;5.20;;;;;;;14.86;52.51;100660.54;129499;1281;114731;-64
2023/04/27 07:29:32;;;;;;;9.80;5.50;;;;;;;15.17;51.67;100662.39;129547;1261;114724;-64
2023/04/27 07:32:36;;;;;;;11.20;5.00;;;;;;;15.51;51.12;100658.30;129411;1271;114768;-61
2023/04/27 07:35:38;;;;;;;12.60;5.30;;;;;;;15.70;50.61;100655.61;129535;1277;114743;-62
2023/04/27 07:38:40;;;;;;;12.70;6.90;;;;;;;15.86;50.79;100650.63;129698;1261;114773;-60
2023/04/27 07:41:43;;;;;;;9.80;4.30;;;;;;;16.11;49.95;100654.02;129539;1280;114746;-65
2023/04/27 07:44:46;;;;;;;12.10;4.30;;;;;;;16.22;49.31;100656.34;129754;1263;115281;-70
2023/04/27 07:47:48;;;;;;;12.10;5.00;;;;;;;16.31;48.86;100652.18;129709;1280;114720;-61
2023/04/27 07:50:51;;;;;;;7.90;3.90;;;;;;;16.42;48.50;100654.64;129719;1281;114720;-68
2023/04/27 07:53:53;;;;;;;8.70;4.40;;;;;;;16.49;47.77;100653.62;129517;1264;114862;-70
2023/04/27 07:56:56;;;;;;;9.40;3.90;;;;;;;16.51;47.69;100654.76;129527;1261;115220;-70
2023/04/27 07:59:58;;;;;;;10.30;3.80;;;;;;;16.51;47.37;100660.71;129512;1280;114801;-71
2023/04/27 08:03:01;;;;;;;7.90;4.10;;;;;;;16.49;46.84;100663.39;129525;1258;114742;-71
2023/04/27 08:06:04;;;;;;;11.10;3.80;;;;;;;16.38;46.65;100664.68;129407;1281;114729;-71
2023/04/27 08:09:07;;;;;;;10.80;4.20;;;;;;;16.24;46.64;100664.67;129488;1259;114716;-72
2023/04/27 08:12:09;;;;;;;7.70;4.10;;;;;;;16.09;45.99;100662.09;129528;1258;114820;-69
2023/04/27 08:15:11;;;;;;;9.90;4.60;;;;;;;15.89;45.96;100662.30;129426;1277;115251;-72
2023/04/27 08:18:14;;;;;;;9.10;4.00;;;;;;;15.86;45.97;100662.01;129539;1271;114999;-72
2023/04/27 08:21:16;;;;;;;6.10;4.00;;;;;;;15.87;45.78;100666.23;129556;1261;114814;-71
2023/04/27 08:24:20;;;;;;;8.00;4.50;;;;;;;15.98;45.73;100668.58;129579;1275;115347;-72
2023/04/27 08:27:22;;;;;;;8.00;3.90;;;;;;;16.29;45.54;100667.81;129485;1265;114820;-71
2023/04/27 08:30:24;;;;;;;7.20;3.60;;;;;;;16.74;45.52;100667.05;129432;1264;114779;-72
2023/04/27 08:33:27;;;;;;;10.40;3.00;;;;;;;17.15;44.94;100662.63;129499;1262;115166;-72
2023/04/27 08:36:29;;;;;;;5.30;2.00;;;;;;;17.52;44.21;100667.55;129597;1261;114745;-70
2023/04/27 08:39:31;;;;;;;9.30;3.40;;;;;;;17.83;43.77;100668.90;129332;1267;114739;-72
2023/04/27 08:42:34;;;;;;;7.40;3.00;;;;;;;17.89;43.25;100668.79;129560;1280;115242;-72
2023/04/27 08:45:37;;;;;;;11.20;2.90;;;;;;;17.84;42.82;100667.77;129674;1261;114981;-72
2023/04/27 08:48:39;;;;;;;7.60;3.10;;;;;;;17.78;42.62;100674.86;129537;1271;114828;-72
2023/04/27 08:51:42;;;;;;;6.20;3.30;;;;;;;17.67;42.32;100673.89;129487;1265;127908;-73
2023/04/27 08:54:44;;;;;;;5.40;3.00;;;;;;;17.58;42.22;100672.56;129533;1273;114843;-73
2023/04/27 08:57:56;;;;;;;10.10;3.80;;;;;;;17.45;42.19;100675.42;129554;1261;115438;-73
2023/04/27 09:01:04;;;;;;;10.90;3.60;;;;;;;17.47;42.28;100677.48;129386;1280;114841;-71
2023/04/27 09:04:07;;;;;;;7.50;3.40;;;;;;;17.52;42.22;100672.65;129504;1265;114870;-63
2023/04/27 09:07:14;;;;;;;5.90;3.60;;;;;;;17.65;42.02;100673.13;129805;1271;114775;-61
2023/04/27 09:10:17;;;;;;;9.80;4.00;;;;;;;17.74;41.47;100671.34;129397;1281;115173;-63
2023/04/27 09:13:19;;;;;;;8.90;3.90;;;;;;;17.82;41.17;100669.20;129691;1261;115089;-62
2023/04/27 09:16:23;;;;;;;9.90;4.90;;;;;;;17.82;41.04;100671.69;129840;1264;115487;-62
2023/04/27 09:19:27;;;;;;;7.20;4.50;;;;;;;17.95;41.31;100664.55;129481;1271;114836;-59
2023/04/27 09:22:30;;;;;;;7.50;3.70;;;;;;;18.01;40.64;100663.44;129413;1277;114704;-62
2023/04/27 09:25:35;;;;;;;5.50;3.20;;;;;;;18.11;40.57;100655.96;129723;1263;114779;-60
2023/04/27 09:28:39;;;;;;;6.60;4.00;;;;;;;18.09;39.90;100654.36;129421;1280;114683;-63
2023/04/27 09:31:41;;;;;;;8.10;3.50;;;;;;;18.09;39.84;100657.23;129541;1263;114662;-61
2023/04/27 09:34:44;;;;;;;7.90;3.20;;;;;;;18.01;39.50;100652.02;129496;1264;114736;-60
2023/04/27 09:37:48;;;;;;;5.20;2.20;;;;;;;18.02;39.51;100652.73;129510;1264;114721;-61
2023/04/27 09:40:51;;;;;;;6.40;3.20;;;;;;;18.05;38.93;100652.29;129502;1279;114735;-63
2023/04/27 09:43:54;;;;;;;7.80;2.80;;;;;;;17.96;39.04;100653.13;129433;1261;114708;-60
2023/04/27 09:46:58;;;;;;;6.20;3.20;;;;;;;17.97;39.36;100655.23;129531;1263;115477;-62
2023/04/27 09:50:03;;;;;;;10.10;3.30;;;;;;;17.92;38.72;100657.75;129404;1261;115171;-61
2023/04/27 09:53:26;;;;;;;4.20;2.80;;;;;;;17.80;38.55;100656.13;129412;1263;128737;-61
2023/04/27 09:56:36;;;;;;;6.30;2.90;;;;;;;17.62;38.41;100653.29;129553;1261;115184;-64
2023/04/27 09:59:56;;;;;;;6.40;2.90;;;;;;;17.55;38.53;100652.52;129489;1280;114745;-62
2023/04/27 10:03:19;;;;;;;5.20;2.50;;;;;;;17.50;38.19;100653.45;129508;1258;114728;-62
2023/04/27 10:06:41;;;;;;;6.90;2.60;;;;;;;17.27;37.77;100648.45;129289;1274;114754;-63
2023/04/27 10:09:48;;;;;;;9.80;2.80;;;;;;;16.98;37.76;100650.64;129266;1266;127701;-60
2023/04/27 10:13:01;;;;;;;3.60;2.50;;;;;;;16.84;37.91;100649.23;129545;1280;115277;-63
2023/04/27 10:16:16;;;;;;;7.20;2.40;;;;;;;16.73;37.87;100655.20;129574;1263;115423;-61
2023/04/27 10:19:23;;;;;;;6.20;3.10;;;;;;;16.71;37.65;100652.67;129687;1281;114704;-64
2023/04/27 10:22:41;;;;;;;6.20;2.50;;;;;;;16.60;37.30;100650.71;129353;1281;114925;-60
2023/04/27 10:25:46;;;;;;;8.10;3.70;;;;;;;16.47;37.47;100649.61;129383;1265;127992;-61
2023/04/27 10:29:07;;;;;;;5.10;2.10;;;;;;;16.33;37.63;100647.54;129538;1281;114799;-63
2023/04/27 10:32:22;;;;;;;4.70;2.00;;;;;;;16.21;37.40;100649.60;129301;1266;114903;-62
2023/04/27 10:35:39;;;;;;;9.00;2.80;;;;;;;16.14;37.42;100648.77;129639;1259;114702;-61
2023/04/27 10:38:41;;;;;;;5.70;2.90;;;;;;;16.14;37.40;100644.48;129400;1263;114734;-61
2023/04/27 10:41:52;;;;;;;4.70;3.20;;;;;;;16.14;37.22;100643.57;129649;1264;115158;-62
2023/04/27 10:44:57;;;;;;;7.50;2.80;;;;;;;16.16;37.60;100646.48;129312;1281;115179;-63
2023/04/27 10:48:00;;;;;;;7.00;3.00;;;;;;;16.17;37.24;100645.15;129477;1263;114919;-63
2023/04/27 10:51:03;;;;;;;7.90;3.80;;;;;;;16.18;37.76;100645.86;129934;1280;114717;-65
2023/04/27 10:54:05;;;;;;;6.60;3.90;;;;;;;16.11;37.48;100646.66;129403;1277;114873;-62
2023/04/27 10:57:11;;;;;;;4.10;3.00;;;;;;;16.05;37.58;100648.65;129528;1281;114778;-64
2023/04/27 11:00:21;;;;;;;8.80;3.50;;;;;;;15.98;37.42;100648.39;129367;1281;129695;-62
2023/04/27 11:03:24;;;;;;;4.10;2.50;;;;;;;15.88;37.71;100647.61;129616;1281;115316;-65
2023/04/27 11:06:33;;;;;;;6.60;3.10;;;;;;;15.79;37.32;100652.67;129440;1281;114741;-63
2023/04/27 11:09:36;;;;;;;7.00;3.30;;;;;;;15.72;37.28;100657.33;129424;1263;115101;-63
2023/04/27 11:12:38;;;;;;;5.20;3.40;;;;;;;15.66;36.78;100663.04;129367;1265;114857;-63
2023/04/27 11:15:45;;;;;;;6.30;3.50;;;;;;;15.63;36.74;100665.63;129342;1265;114793;-61
2023/04/27 11:18:48;;;;;;;5.30;3.30;;;;;;;15.61;36.73;100667.14;129445;1262;115246;-71
2023/04/27 11:21:50;;;;;;;6.40;2.90;;;;;;;15.64;36.81;100665.17;129427;1264;114727;-71
2023/04/27 11:24:53;;;;;;;4.60;3.30;;;;;;;15.67;36.60;100658.31;129533;1276;114810;-64
2023/04/27 11:27:55;;;;;;;5.10;3.20;;;;;;;15.72;36.86;100661.63;129515;1281;114725;-65
2023/04/27 11:30:58;;;;;;;6.20;3.20;;;;;;;15.71;37.10;100664.38;129355;1264;114825;-72
2023/04/27 11:34:01;;;;;;;8.20;3.60;;;;;;;15.75;37.34;100672.58;129450;1263;114749;-64
2023/04/27 11:37:05;;;;;;;4.90;3.20;;;;;;;15.84;37.27;100673.63;129381;1260;114718;-64
2023/04/27 11:40:10;;;;;;;6.60;3.10;;;;;;;15.86;37.19;100677.81;129187;1267;115207;-72
2023/04/27 11:43:13;;;;;;;7.70;3.50;;;;;;;15.80;37.12;100676.92;129478;1270;114711;-64
2023/04/27 11:46:20;;;;;;;9.30;4.00;;;;;;;15.75;37.17;100675.45;129487;1263;115128;-69
2023/04/27 11:49:24;;;;;;;5.90;3.70;;;;;;;15.75;37.11;100676.36;129425;1263;128859;-67
2023/04/27 11:52:30;;;;;;;;;;;;;;;15.76;36.81;100673.77;129417;1266;114885;-69
2023/04/27 11:55:36;;;;;;;7.30;3.00;;;;;;;15.79;36.77;100680.97;129374;1266;114817;-69
2023/04/27 11:58:39;;;;;;;5.00;3.00;;;;;;;15.87;36.79;100675.64;129312;1277;114754;-66
2023/04/27 12:01:41;;;;;;;5.00;2.70;;;;;;;15.97;36.70;100680.54;129448;1280;114719;-69
2023/04/27 12:04:43;;;;;;;3.80;2.40;;;;;;;16.07;36.54;100681.52;129574;1281;114784;-71
2023/04/27 12:07:46;;;;;;;7.80;3.20;;;;;;;16.08;36.00;100681.80;129539;1276;114816;-65
2023/04/27 12:10:48;;;;;;;7.80;2.50;;;;;;;16.09;36.12;100680.67;129557;1264;115183;-61
2023/04/27 12:13:51;;;;;;;3.80;2.70;;;;;;;16.12;35.75;100681.17;129477;1263;115362;-67
2023/04/27 12:16:53;;;;;;;7.80;3.60;;;;;;;16.18;35.61;100676.13;129531;1261;115111;-67
2023/04/27 12:19:58;;;;;;;6.00;4.30;;;;;;;16.15;35.67;100675.06;129214;1266;116437;-70
2023/04/27 12:23:00;;;;;;;7.50;4.10;;;;;;;16.21;36.05;100674.99;129479;1264;114807;-68
2023/04/27 12:26:02;;;;;;;8.80;3.70;;;;;;;16.32;36.16;100664.87;129452;1281;114768;-70
2023/04/27 12:29:05;;;;;;;5.60;3.40;;;;;;;16.47;36.23;100666.38;129574;1276;114851;-70
2023/04/27 12:32:07;;;;;;;5.70;3.80;;;;;;;16.61;36.05;100663.08;129539;1258;114917;-65
2023/04/27 12:35:09;;;;;;;4.30;3.40;;;;;;;16.60;35.43;100668.59;130740;1264;114658;-67
2023/04/27 12:38:12;;;;;;;5.80;3.80;;;;;;;16.49;35.41;100677.61;131841;1257;113728;-63
2023/04/27 12:41:15;;;;;;;12.50;4.50;;;;;;;16.44;35.62;100678.16;131266;1257;114711;-71
2023/04/27 12:44:18;;;;;;;15.30;5.10;;;;;;;16.37;35.18;100678.41;129383;1271;127546;-70
2023/04/27 12:47:20;;;;;;;6.60;3.70;;;;;;;16.27;35.32;100680.58;129934;1258;114800;-69
2023/04/27 12:50:23;;;;;;;13.10;4.80;;;;;;;16.19;35.16;100681.23;129798;1262;114742;-73
2023/04/27 12:53:28;;;;;;;5.60;3.90;;;;;;;16.19;35.32;100681.83;129555;1257;115317;-71
2023/04/27 12:56:31;;;;;;;5.10;2.90;;;;;;;16.16;34.82;100683.61;129275;1267;114922;-71
2023/04/27 12:59:34;;;;;;;7.10;3.10;;;;;;;16.17;34.73;100686.79;129406;1264;114718;-71
2023/04/27 13:02:36;;;;;;;4.60;2.80;;;;;;;16.21;34.75;100678.60;129485;1280;115518;-71
2023/04/27 13:05:39;;;;;;;7.70;4.30;;;;;;;16.25;34.98;100680.30;129435;1263;114810;-70
2023/04/27 13:08:42;;;;;;;6.30;3.10;;;;;;;16.29;34.65;100675.56;129599;1261;114904;-71
2023/04/27 13:11:44;;;;;;;12.10;3.10;;;;;;;16.30;34.31;100675.83;129471;1276;114940;-69
2023/04/27 13:14:46;;;;;;;4.00;2.50;;;;;;;16.22;33.86;100676.73;129704;1258;114739;-69
2023/04/27 13:17:51;;;;;;;6.50;3.30;;;;;;;16.13;34.09;100672.09;129494;1280;115108;-70
2023/04/27 13:20:54;;;;;;;6.40;2.70;;;;;;;16.06;34.14;100674.52;129458;1264;115270;-71
2023/04/27 13:23:56;;;;;;;6.20;2.70;;;;;;;15.94;34.27;100667.37;129326;1257;445345;-71
2023/04/27 13:27:00;;;;;;;6.20;3.30;;;;;;;15.84;34.53;100664.44;129565;1276;114773;-69
2023/04/27 13:30:03;;;;;;;6.40;3.40;;;;;;;15.75;34.50;100666.29;129426;1257;114728;-71
2023/04/27 13:33:06;;;;;;;9.70;3.60;;;;;;;15.62;34.52;100667.65;129565;1257;114739;-73
2023/04/27 13:36:12;;;;;;;6.00;3.70;;;;;;;15.48;34.66;100671.96;129891;1281;114797;-68
2023/04/27 13:39:15;;;;;;;6.30;3.80;;;;;;;15.39;35.13;100672.91;129501;1264;116516;-71
2023/04/27 13:42:17;;;;;;;8.40;3.90;;;;;;;15.21;35.80;100680.14;129507;1264;115396;-72
2023/04/27 13:45:20;;;;;;;10.90;3.60;;;;;;;15.07;35.85;100688.05;129685;1264;115954;-71
2023/04/27 13:48:23;;;;;;;7.10;4.30;;;;;;;14.96;36.44;100680.48;129945;1264;114795;-71
2023/04/27 13:51:28;;;;;;;8.80;3.80;;;;;;;14.87;36.76;100693.02;129389;1265;114727;-71